Homewood, California
Current Conditions -  °F | °C
As of 10:53 AM on Monday 20 Oct 2014 (Local Time) from KTVL Reporting Station
Clear Clear  
Wind Chill: 59°   Ceiling: Unl
Heat Index: 59°   Visibility: 10mi
Dew Point: 31°   Wind: 10mph
Humidity: 35%   Direction: 200°SSW
Pressure: 30.04"   Gusts: 23mph
Location:  39.09°N, 120.16°W
Report Text: KTVL 201753Z AUTO 20009G20KT 160V230 10SM CLR 15/M01 A3004 RMK AO2 SLP136 T01501006 10150 20044 51004
Loading
Personal Weather Stations






























Interactive Weather Map
Tropical Storm Tracking
New forecast layout! Learn more

10-Day Weather Forecast

Advertisements
Track Severe Weather on mobile